Claremont, NH (03743)

11:08 EDT le 27 août 2014 (GMT -0400)
Airport Hill | Change Station
CLOSE
Current Station
Stations météorologiques personnelles
Location: Claremont, NH
Altitude: 545 ft
Stations météo à proximité

Alt. 545 ft 43.37 °N, 72.37 °W | Updated 9 seconds ago

Ciel dégagé
Ciel dégagé
74.2 ° F
Paraît 75 ° F
N
0.0
Vent Variable Vent de Nord
Gusts 0.0 mph

Aujourd'hui
Haut(e) -- | Bas -- ° F
--% Risque de précip.
Hier
Haut(e) -- | Bas -- ° F
Precip. -- pouce
6:07 AM 7:33 PM
Lune montante, 4% visible
Pression 29.98 pouce
Visibilité 10.0 Miles terrestres
Nuages Ciel dégagé
indice de chaleur 75 ° F
Point de rosée 68 ° F
Humidité 80%
Précipitations 0.00 pouce
Profondeur de la couche neigeuse Non disponible.
UV 5 sur 12
Pollen 8.10 sur 12
Qualité de l'air Non disponible.
Flu Activity Non disponible.
METAR KVSF 271354Z AUTO 00000KT 10SM CLR 23/18 A2998 RMK AO2 SLP150 T02330178

More Conditions Fewer Conditions

Pression 29.98 pouce
Visibilité 10.0 Miles terrestres
Nuages Ciel dégagé
indice de chaleur 75 ° F
Point de rosée 68 ° F
Humidité 80%
Précipitations 0.00 pouce
Profondeur de la couche neigeuse Non disponible.
UV 5 sur 12
Pollen 8.10 sur 12
Qualité de l'air Non disponible.
Flu Activity Non disponible.
METAR KVSF 271354Z AUTO 00000KT 10SM CLR 23/18 A2998 RMK AO2 SLP150 T02330178

More Conditions Fewer Conditions

10-Day Weather Forecast

Almanac

Astronomie

Aug. 27, 2014 Lever Coucher
Temps réel 06:07 EDT 19:33 EDT
Crépuscule civil 05:38 EDT 20:02 EDT
Crépuscule nautique 05:02 EDT 20:38 EDT
Crépuscule astronomique 04:23 EDT 21:16 EDT
Lune 08:05 EDT 20:18 EDT
Durée de lumière visible 14h 24m
Longueur du jour
13h 25m
Tomorrow will be 2m 48s shorter.
Lune montante, 4% of the Moon is Illuminated
Aujourd'hui
Lune montante
Sep 2
Premier quartier
Sep 8
Pleine lune
Sep 15
Dernier quartier
Sep 24
Nouveau

Extrêmes aujourd'hui

State Highs State Lows

Community

WunderPhotos

Upload Photos

1,747,703 Photos téléchargées !

Nearby

Qualité de l'air

  Qualité de l'air Indice de la qualité de l'air Polluant
mercredi Bon
PM2.5
mercredi Bon
OZONE
jeudi Bon
PM2.5
jeudi Bon
OZONE

Épaisseur de neige

Station Depth Altitude
Pas de nouvelles chutes de neige

Activité sismique

Ville Distance Mag. Time & Date
No recent earthquake activity has been reported nearby.
Minimum magnitude displayed is 2.5.

Températures des eaux côtières

Lieu Température
Aucun rapport de station

Stations météo à proximité